sensor_id;sensor_type;location;lat;lon;timestamp;P1;durP1;ratioP1;P2;durP2;ratioP2
76761;SDS011;65705;51.032;13.790;2023-02-19T00:04:05;6.10;;;1.67;;
76761;SDS011;65705;51.032;13.790;2023-02-19T00:06:34;5.95;;;1.73;;
76761;SDS011;65705;51.032;13.790;2023-02-19T00:09:01;4.75;;;1.50;;
76761;SDS011;65705;51.032;13.790;2023-02-19T00:11:28;3.95;;;1.65;;
76761;SDS011;65705;51.032;13.790;2023-02-19T00:13:56;2.78;;;1.25;;
76761;SDS011;65705;51.032;13.790;2023-02-19T00:16:24;3.08;;;1.25;;
76761;SDS011;65705;51.032;13.790;2023-02-19T00:18:55;4.25;;;1.30;;
76761;SDS011;65705;51.032;13.790;2023-02-19T00:21:22;4.63;;;1.50;;
76761;SDS011;65705;51.032;13.790;2023-02-19T00:23:56;4.43;;;1.52;;
76761;SDS011;65705;51.032;13.790;2023-02-19T00:26:24;3.70;;;1.45;;
76761;SDS011;65705;51.032;13.790;2023-02-19T00:28:50;3.03;;;1.25;;
76761;SDS011;65705;51.032;13.790;2023-02-19T00:31:18;4.20;;;1.40;;
76761;SDS011;65705;51.032;13.790;2023-02-19T00:33:47;3.00;;;1.25;;
76761;SDS011;65705;51.032;13.790;2023-02-19T00:36:13;4.43;;;1.52;;
76761;SDS011;65705;51.032;13.790;2023-02-19T00:38:40;5.43;;;1.30;;
76761;SDS011;65705;51.032;13.790;2023-02-19T00:41:08;3.55;;;1.42;;
76761;SDS011;65705;51.032;13.790;2023-02-19T00:43:51;3.30;;;1.30;;
76761;SDS011;65705;51.032;13.790;2023-02-19T00:48:53;3.65;;;1.65;;
76761;SDS011;65705;51.032;13.790;2023-02-19T00:51:21;6.53;;;1.58;;
76761;SDS011;65705;51.032;13.790;2023-02-19T00:53:49;4.20;;;1.48;;
76761;SDS011;65705;51.032;13.790;2023-02-19T00:56:15;3.67;;;1.65;;
76761;SDS011;65705;51.032;13.790;2023-02-19T00:58:41;5.82;;;1.92;;
76761;SDS011;65705;51.032;13.790;2023-02-19T01:01:07;4.53;;;1.17;;
76761;SDS011;65705;51.032;13.790;2023-02-19T01:03:33;4.40;;;1.52;;
76761;SDS011;65705;51.032;13.790;2023-02-19T01:06:00;6.25;;;1.27;;
76761;SDS011;65705;51.032;13.790;2023-02-19T01:08:26;3.08;;;1.17;;
76761;SDS011;65705;51.032;13.790;2023-02-19T01:10:55;3.20;;;1.27;;
76761;SDS011;65705;51.032;13.790;2023-02-19T01:13:21;3.90;;;1.27;;
76761;SDS011;65705;51.032;13.790;2023-02-19T01:15:47;3.28;;;1.23;;
76761;SDS011;65705;51.032;13.790;2023-02-19T01:18:13;3.70;;;1.20;;
76761;SDS011;65705;51.032;13.790;2023-02-19T01:20:40;3.53;;;1.23;;
76761;SDS011;65705;51.032;13.790;2023-02-19T01:23:07;5.68;;;2.08;;
76761;SDS011;65705;51.032;13.790;2023-02-19T01:25:37;2.75;;;1.10;;
76761;SDS011;65705;51.032;13.790;2023-02-19T01:28:04;3.03;;;0.98;;
76761;SDS011;65705;51.032;13.790;2023-02-19T01:30:32;4.40;;;1.20;;
76761;SDS011;65705;51.032;13.790;2023-02-19T01:32:59;2.92;;;1.10;;
76761;SDS011;65705;51.032;13.790;2023-02-19T01:35:24;3.50;;;1.00;;
76761;SDS011;65705;51.032;13.790;2023-02-19T01:37:50;2.65;;;1.00;;
76761;SDS011;65705;51.032;13.790;2023-02-19T01:40:16;3.35;;;1.20;;
76761;SDS011;65705;51.032;13.790;2023-02-19T01:42:42;2.70;;;1.30;;
76761;SDS011;65705;51.032;13.790;2023-02-19T01:45:17;2.95;;;1.20;;
76761;SDS011;65705;51.032;13.790;2023-02-19T01:47:50;3.05;;;1.13;;
76761;SDS011;65705;51.032;13.790;2023-02-19T01:50:39;7.05;;;1.95;;
76761;SDS011;65705;51.032;13.790;2023-02-19T01:53:11;4.43;;;1.63;;
76761;SDS011;65705;51.032;13.790;2023-02-19T01:55:40;3.55;;;1.50;;
76761;SDS011;65705;51.032;13.790;2023-02-19T01:58:08;2.88;;;1.27;;
76761;SDS011;65705;51.032;13.790;2023-02-19T02:00:36;3.40;;;1.40;;
76761;SDS011;65705;51.032;13.790;2023-02-19T02:03:02;2.80;;;1.27;;
76761;SDS011;65705;51.032;13.790;2023-02-19T02:08:17;3.67;;;1.27;;
76761;SDS011;65705;51.032;13.790;2023-02-19T02:11:01;5.85;;;1.60;;
76761;SDS011;65705;51.032;13.790;2023-02-19T02:13:28;3.20;;;1.30;;
76761;SDS011;65705;51.032;13.790;2023-02-19T02:21:47;5.72;;;1.45;;
76761;SDS011;65705;51.032;13.790;2023-02-19T02:29:48;2.80;;;1.40;;
76761;SDS011;65705;51.032;13.790;2023-02-19T02:32:16;2.17;;;0.95;;
76761;SDS011;65705;51.032;13.790;2023-02-19T02:34:51;3.65;;;1.00;;
76761;SDS011;65705;51.032;13.790;2023-02-19T02:37:20;1.75;;;0.85;;
76761;SDS011;65705;51.032;13.790;2023-02-19T02:39:50;4.97;;;0.90;;
76761;SDS011;65705;51.032;13.790;2023-02-19T02:42:17;1.73;;;0.80;;
76761;SDS011;65705;51.032;13.790;2023-02-19T02:48:35;2.40;;;1.02;;
76761;SDS011;65705;51.032;13.790;2023-02-19T02:56:22;1.30;;;0.70;;
76761;SDS011;65705;51.032;13.790;2023-02-19T02:58:49;1.20;;;0.65;;
76761;SDS011;65705;51.032;13.790;2023-02-19T03:04:51;2.88;;;0.63;;
76761;SDS011;65705;51.032;13.790;2023-02-19T03:07:38;1.27;;;0.60;;
76761;SDS011;65705;51.032;13.790;2023-02-19T03:10:14;2.05;;;0.57;;
76761;SDS011;65705;51.032;13.790;2023-02-19T03:12:44;1.00;;;0.60;;
76761;SDS011;65705;51.032;13.790;2023-02-19T03:15:32;0.85;;;0.47;;
76761;SDS011;65705;51.032;13.790;2023-02-19T03:18:22;0.77;;;0.43;;
76761;SDS011;65705;51.032;13.790;2023-02-19T03:21:07;0.65;;;0.40;;
76761;SDS011;65705;51.032;13.790;2023-02-19T03:23:37;2.05;;;0.60;;
76761;SDS011;65705;51.032;13.790;2023-02-19T03:26:21;2.05;;;0.50;;
76761;SDS011;65705;51.032;13.790;2023-02-19T03:28:50;0.70;;;0.30;;
76761;SDS011;65705;51.032;13.790;2023-02-19T03:31:39;1.75;;;0.52;;
76761;SDS011;65705;51.032;13.790;2023-02-19T03:34:09;0.65;;;0.43;;
76761;SDS011;65705;51.032;13.790;2023-02-19T03:36:44;2.08;;;0.60;;
76761;SDS011;65705;51.032;13.790;2023-02-19T03:39:14;0.82;;;0.60;;
76761;SDS011;65705;51.032;13.790;2023-02-19T03:41:50;0.98;;;0.47;;
76761;SDS011;65705;51.032;13.790;2023-02-19T03:44:34;1.15;;;0.50;;
76761;SDS011;65705;51.032;13.790;2023-02-19T03:52:21;1.88;;;0.55;;
76761;SDS011;65705;51.032;13.790;2023-02-19T03:55:11;1.88;;;0.65;;
76761;SDS011;65705;51.032;13.790;2023-02-19T03:58:07;0.90;;;0.40;;
76761;SDS011;65705;51.032;13.790;2023-02-19T04:03:16;1.13;;;0.50;;
76761;SDS011;65705;51.032;13.790;2023-02-19T04:05:47;1.27;;;0.40;;
76761;SDS011;65705;51.032;13.790;2023-02-19T04:08:18;0.65;;;0.20;;
76761;SDS011;65705;51.032;13.790;2023-02-19T04:10:52;0.60;;;0.20;;
76761;SDS011;65705;51.032;13.790;2023-02-19T04:13:25;0.77;;;0.35;;
76761;SDS011;65705;51.032;13.790;2023-02-19T04:15:55;0.40;;;0.10;;
76761;SDS011;65705;51.032;13.790;2023-02-19T04:18:27;1.30;;;0.20;;
76761;SDS011;65705;51.032;13.790;2023-02-19T04:20:55;0.47;;;0.28;;
76761;SDS011;65705;51.032;13.790;2023-02-19T04:23:24;0.60;;;0.20;;
76761;SDS011;65705;51.032;13.790;2023-02-19T04:25:53;0.13;;;0.10;;
76761;SDS011;65705;51.032;13.790;2023-02-19T04:28:23;1.77;;;0.20;;
76761;SDS011;65705;51.032;13.790;2023-02-19T04:30:49;0.60;;;0.20;;
76761;SDS011;65705;51.032;13.790;2023-02-19T04:33:14;0.28;;;0.10;;
76761;SDS011;65705;51.032;13.790;2023-02-19T04:35:40;0.17;;;0.10;;
76761;SDS011;65705;51.032;13.790;2023-02-19T04:38:06;0.90;;;0.20;;
76761;SDS011;65705;51.032;13.790;2023-02-19T04:40:32;0.03;;;0.00;;
76761;SDS011;65705;51.032;13.790;2023-02-19T04:42:58;0.93;;;0.30;;
76761;SDS011;65705;51.032;13.790;2023-02-19T04:45:23;0.60;;;0.10;;
76761;SDS011;65705;51.032;13.790;2023-02-19T04:47:49;3.85;;;0.30;;
76761;SDS011;65705;51.032;13.790;2023-02-19T04:50:15;0.22;;;0.03;;
76761;SDS011;65705;51.032;13.790;2023-02-19T04:52:41;0.47;;;0.10;;
76761;SDS011;65705;51.032;13.790;2023-02-19T04:55:07;0.55;;;0.20;;
76761;SDS011;65705;51.032;13.790;2023-02-19T04:57:33;0.52;;;0.15;;
76761;SDS011;65705;51.032;13.790;2023-02-19T04:59:59;0.00;;;0.00;;
76761;SDS011;65705;51.032;13.790;2023-02-19T05:02:25;0.73;;;0.10;;
76761;SDS011;65705;51.032;13.790;2023-02-19T05:04:50;0.70;;;0.20;;
76761;SDS011;65705;51.032;13.790;2023-02-19T05:07:16;0.45;;;0.20;;
76761;SDS011;65705;51.032;13.790;2023-02-19T05:09:42;0.10;;;0.10;;
76761;SDS011;65705;51.032;13.790;2023-02-19T05:12:08;0.57;;;0.25;;
76761;SDS011;65705;51.032;13.790;2023-02-19T05:14:33;0.20;;;0.13;;
76761;SDS011;65705;51.032;13.790;2023-02-19T05:16:59;0.32;;;0.25;;
76761;SDS011;65705;51.032;13.790;2023-02-19T05:19:25;0.52;;;0.20;;
76761;SDS011;65705;51.032;13.790;2023-02-19T05:21:50;1.02;;;0.20;;
76761;SDS011;65705;51.032;13.790;2023-02-19T05:24:16;2.20;;;0.30;;
76761;SDS011;65705;51.032;13.790;2023-02-19T05:26:41;0.73;;;0.30;;
76761;SDS011;65705;51.032;13.790;2023-02-19T05:29:07;0.57;;;0.43;;
76761;SDS011;65705;51.032;13.790;2023-02-19T05:31:33;0.82;;;0.50;;
76761;SDS011;65705;51.032;13.790;2023-02-19T05:33:58;0.40;;;0.30;;
76761;SDS011;65705;51.032;13.790;2023-02-19T05:36:24;0.40;;;0.20;;
76761;SDS011;65705;51.032;13.790;2023-02-19T05:38:51;0.45;;;0.30;;
76761;SDS011;65705;51.032;13.790;2023-02-19T05:43:50;0.70;;;0.20;;
76761;SDS011;65705;51.032;13.790;2023-02-19T05:46:17;3.13;;;0.32;;
76761;SDS011;65705;51.032;13.790;2023-02-19T05:48:44;1.58;;;0.22;;
76761;SDS011;65705;51.032;13.790;2023-02-19T05:51:14;0.10;;;0.10;;
76761;SDS011;65705;51.032;13.790;2023-02-19T05:53:42;0.10;;;0.10;;
76761;SDS011;65705;51.032;13.790;2023-02-19T05:59:03;1.08;;;0.20;;
76761;SDS011;65705;51.032;13.790;2023-02-19T06:01:32;0.15;;;0.08;;
76761;SDS011;65705;51.032;13.790;2023-02-19T06:03:59;0.47;;;0.13;;
76761;SDS011;65705;51.032;13.790;2023-02-19T06:06:25;0.17;;;0.10;;
76761;SDS011;65705;51.032;13.790;2023-02-19T06:08:51;0.50;;;0.20;;
76761;SDS011;65705;51.032;13.790;2023-02-19T06:11:18;1.55;;;0.20;;
76761;SDS011;65705;51.032;13.790;2023-02-19T06:13:44;0.25;;;0.25;;
76761;SDS011;65705;51.032;13.790;2023-02-19T06:16:10;0.95;;;0.10;;
76761;SDS011;65705;51.032;13.790;2023-02-19T06:18:36;0.93;;;0.50;;
76761;SDS011;65705;51.032;13.790;2023-02-19T06:21:05;1.17;;;0.50;;
76761;SDS011;65705;51.032;13.790;2023-02-19T06:23:33;1.92;;;0.70;;
76761;SDS011;65705;51.032;13.790;2023-02-19T06:26:06;1.33;;;0.52;;
76761;SDS011;65705;51.032;13.790;2023-02-19T06:28:37;0.75;;;0.30;;
76761;SDS011;65705;51.032;13.790;2023-02-19T06:31:03;3.80;;;0.55;;
76761;SDS011;65705;51.032;13.790;2023-02-19T06:33:30;0.30;;;0.20;;
76761;SDS011;65705;51.032;13.790;2023-02-19T06:35:57;0.52;;;0.17;;
76761;SDS011;65705;51.032;13.790;2023-02-19T06:38:24;0.17;;;0.10;;
76761;SDS011;65705;51.032;13.790;2023-02-19T06:40:50;0.77;;;0.40;;
76761;SDS011;65705;51.032;13.790;2023-02-19T06:43:15;0.25;;;0.10;;
76761;SDS011;65705;51.032;13.790;2023-02-19T06:45:41;0.43;;;0.20;;
76761;SDS011;65705;51.032;13.790;2023-02-19T06:48:07;0.38;;;0.30;;
76761;SDS011;65705;51.032;13.790;2023-02-19T06:50:33;0.13;;;0.10;;
76761;SDS011;65705;51.032;13.790;2023-02-19T06:52:58;0.28;;;0.13;;
76761;SDS011;65705;51.032;13.790;2023-02-19T06:55:24;1.35;;;0.30;;
76761;SDS011;65705;51.032;13.790;2023-02-19T06:57:50;0.03;;;0.03;;
76761;SDS011;65705;51.032;13.790;2023-02-19T07:00:15;0.20;;;0.10;;
76761;SDS011;65705;51.032;13.790;2023-02-19T07:02:41;1.15;;;0.30;;
76761;SDS011;65705;51.032;13.790;2023-02-19T07:05:07;0.47;;;0.20;;
76761;SDS011;65705;51.032;13.790;2023-02-19T07:07:33;0.40;;;0.20;;
76761;SDS011;65705;51.032;13.790;2023-02-19T07:09:59;1.77;;;0.70;;
76761;SDS011;65705;51.032;13.790;2023-02-19T07:12:24;0.68;;;0.30;;
76761;SDS011;65705;51.032;13.790;2023-02-19T07:14:50;0.73;;;0.30;;
76761;SDS011;65705;51.032;13.790;2023-02-19T07:17:16;0.73;;;0.40;;
76761;SDS011;65705;51.032;13.790;2023-02-19T07:19:41;0.35;;;0.25;;
76761;SDS011;65705;51.032;13.790;2023-02-19T07:22:07;0.35;;;0.30;;
76761;SDS011;65705;51.032;13.790;2023-02-19T07:24:32;5.72;;;2.28;;
76761;SDS011;65705;51.032;13.790;2023-02-19T07:26:58;1.73;;;0.50;;
76761;SDS011;65705;51.032;13.790;2023-02-19T07:29:24;1.25;;;0.47;;
76761;SDS011;65705;51.032;13.790;2023-02-19T07:31:49;0.98;;;0.50;;
76761;SDS011;65705;51.032;13.790;2023-02-19T07:34:15;1.60;;;0.40;;
76761;SDS011;65705;51.032;13.790;2023-02-19T07:36:41;2.88;;;0.50;;
76761;SDS011;65705;51.032;13.790;2023-02-19T07:39:07;2.38;;;0.50;;
76761;SDS011;65705;51.032;13.790;2023-02-19T07:41:37;1.85;;;0.50;;
76761;SDS011;65705;51.032;13.790;2023-02-19T07:44:04;0.85;;;0.30;;
76761;SDS011;65705;51.032;13.790;2023-02-19T07:46:30;1.85;;;0.30;;
76761;SDS011;65705;51.032;13.790;2023-02-19T07:48:56;0.30;;;0.20;;
76761;SDS011;65705;51.032;13.790;2023-02-19T07:51:23;0.35;;;0.20;;
76761;SDS011;65705;51.032;13.790;2023-02-19T07:53:49;0.40;;;0.25;;
76761;SDS011;65705;51.032;13.790;2023-02-19T07:56:15;0.32;;;0.28;;
76761;SDS011;65705;51.032;13.790;2023-02-19T07:58:42;1.15;;;0.43;;
76761;SDS011;65705;51.032;13.790;2023-02-19T08:03:41;1.58;;;0.52;;
76761;SDS011;65705;51.032;13.790;2023-02-19T08:06:08;1.65;;;0.60;;
76761;SDS011;65705;51.032;13.790;2023-02-19T08:08:36;0.93;;;0.47;;
76761;SDS011;65705;51.032;13.790;2023-02-19T08:11:03;0.85;;;0.40;;
76761;SDS011;65705;51.032;13.790;2023-02-19T08:13:48;0.25;;;0.22;;
76761;SDS011;65705;51.032;13.790;2023-02-19T08:16:15;1.38;;;0.38;;
76761;SDS011;65705;51.032;13.790;2023-02-19T08:18:44;1.27;;;0.63;;
76761;SDS011;65705;51.032;13.790;2023-02-19T08:21:11;1.65;;;0.60;;
76761;SDS011;65705;51.032;13.790;2023-02-19T08:23:37;0.30;;;0.30;;
76761;SDS011;65705;51.032;13.790;2023-02-19T08:26:04;1.38;;;0.60;;
76761;SDS011;65705;51.032;13.790;2023-02-19T08:28:30;10.07;;;4.35;;
76761;SDS011;65705;51.032;13.790;2023-02-19T08:30:57;1.52;;;0.50;;
76761;SDS011;65705;51.032;13.790;2023-02-19T08:33:28;1.13;;;0.50;;
76761;SDS011;65705;51.032;13.790;2023-02-19T08:35:54;2.25;;;0.65;;
76761;SDS011;65705;51.032;13.790;2023-02-19T08:38:20;0.45;;;0.30;;
76761;SDS011;65705;51.032;13.790;2023-02-19T08:40:46;0.50;;;0.20;;
76761;SDS011;65705;51.032;13.790;2023-02-19T08:43:13;0.22;;;0.20;;
76761;SDS011;65705;51.032;13.790;2023-02-19T08:45:41;0.20;;;0.20;;
76761;SDS011;65705;51.032;13.790;2023-02-19T08:48:08;0.43;;;0.20;;
76761;SDS011;65705;51.032;13.790;2023-02-19T08:50:35;3.10;;;1.05;;
76761;SDS011;65705;51.032;13.790;2023-02-19T08:53:03;0.75;;;0.40;;
76761;SDS011;65705;51.032;13.790;2023-02-19T08:55:30;14.35;;;6.53;;
76761;SDS011;65705;51.032;13.790;2023-02-19T08:57:56;1.05;;;0.50;;
76761;SDS011;65705;51.032;13.790;2023-02-19T09:00:22;215.07;;;71.90;;
76761;SDS011;65705;51.032;13.790;2023-02-19T09:02:49;158.38;;;58.47;;
76761;SDS011;65705;51.032;13.790;2023-02-19T09:05:15;70.60;;;31.92;;
76761;SDS011;65705;51.032;13.790;2023-02-19T09:07:41;1.92;;;0.60;;
76761;SDS011;65705;51.032;13.790;2023-02-19T09:10:09;0.65;;;0.43;;
76761;SDS011;65705;51.032;13.790;2023-02-19T09:12:36;0.40;;;0.40;;
76761;SDS011;65705;51.032;13.790;2023-02-19T09:15:03;1.48;;;0.80;;
76761;SDS011;65705;51.032;13.790;2023-02-19T09:17:29;2.88;;;0.70;;
76761;SDS011;65705;51.032;13.790;2023-02-19T09:19:55;0.82;;;0.50;;
76761;SDS011;65705;51.032;13.790;2023-02-19T09:22:21;0.95;;;0.60;;
76761;SDS011;65705;51.032;13.790;2023-02-19T09:24:46;0.40;;;0.40;;
76761;SDS011;65705;51.032;13.790;2023-02-19T09:27:16;1.48;;;0.50;;
76761;SDS011;65705;51.032;13.790;2023-02-19T09:29:43;1.17;;;0.43;;
76761;SDS011;65705;51.032;13.790;2023-02-19T09:32:10;1.63;;;0.30;;
76761;SDS011;65705;51.032;13.790;2023-02-19T09:34:36;0.30;;;0.28;;
76761;SDS011;65705;51.032;13.790;2023-02-19T09:37:03;0.55;;;0.15;;
76761;SDS011;65705;51.032;13.790;2023-02-19T09:39:30;0.20;;;0.10;;
76761;SDS011;65705;51.032;13.790;2023-02-19T09:41:57;1.50;;;0.45;;
76761;SDS011;65705;51.032;13.790;2023-02-19T09:44:29;1.08;;;0.30;;
76761;SDS011;65705;51.032;13.790;2023-02-19T09:46:59;0.73;;;0.25;;
76761;SDS011;65705;51.032;13.790;2023-02-19T09:49:35;0.55;;;0.30;;
76761;SDS011;65705;51.032;13.790;2023-02-19T09:52:08;4.43;;;0.40;;
76761;SDS011;65705;51.032;13.790;2023-02-19T09:54:42;1.15;;;0.30;;
76761;SDS011;65705;51.032;13.790;2023-02-19T09:57:13;2.20;;;0.43;;
76761;SDS011;65705;51.032;13.790;2023-02-19T09:59:45;0.82;;;0.25;;
76761;SDS011;65705;51.032;13.790;2023-02-19T10:02:15;3.60;;;0.98;;
76761;SDS011;65705;51.032;13.790;2023-02-19T10:04:44;3.70;;;0.40;;
76761;SDS011;65705;51.032;13.790;2023-02-19T10:07:14;1.27;;;0.65;;
76761;SDS011;65705;51.032;13.790;2023-02-19T10:09:59;1.17;;;0.55;;
76761;SDS011;65705;51.032;13.790;2023-02-19T10:12:28;2.22;;;0.68;;
76761;SDS011;65705;51.032;13.790;2023-02-19T10:15:00;2.47;;;0.40;;
76761;SDS011;65705;51.032;13.790;2023-02-19T10:17:33;4.07;;;0.90;;
76761;SDS011;65705;51.032;13.790;2023-02-19T10:20:00;2.55;;;0.73;;
76761;SDS011;65705;51.032;13.790;2023-02-19T10:22:32;1.33;;;0.65;;
76761;SDS011;65705;51.032;13.790;2023-02-19T10:25:02;3.13;;;0.80;;
76761;SDS011;65705;51.032;13.790;2023-02-19T10:27:28;1.42;;;0.47;;
76761;SDS011;65705;51.032;13.790;2023-02-19T10:29:55;1.98;;;0.73;;
76761;SDS011;65705;51.032;13.790;2023-02-19T10:32:23;0.45;;;0.35;;
76761;SDS011;65705;51.032;13.790;2023-02-19T10:37:59;2.38;;;0.60;;
76761;SDS011;65705;51.032;13.790;2023-02-19T10:40:26;4.07;;;0.70;;
76761;SDS011;65705;51.032;13.790;2023-02-19T10:42:54;3.40;;;0.50;;
76761;SDS011;65705;51.032;13.790;2023-02-19T10:45:33;3.47;;;1.00;;
76761;SDS011;65705;51.032;13.790;2023-02-19T10:48:21;1.58;;;0.50;;
76761;SDS011;65705;51.032;13.790;2023-02-19T10:50:52;1.85;;;0.50;;
76761;SDS011;65705;51.032;13.790;2023-02-19T10:56:21;2.53;;;0.70;;
76761;SDS011;65705;51.032;13.790;2023-02-19T10:58:49;2.60;;;0.85;;
76761;SDS011;65705;51.032;13.790;2023-02-19T11:01:16;3.17;;;0.68;;
76761;SDS011;65705;51.032;13.790;2023-02-19T11:03:51;1.65;;;0.50;;
76761;SDS011;65705;51.032;13.790;2023-02-19T11:06:37;1.77;;;0.70;;
76761;SDS011;65705;51.032;13.790;2023-02-19T11:09:03;2.15;;;0.70;;
76761;SDS011;65705;51.032;13.790;2023-02-19T11:11:35;2.08;;;0.60;;
76761;SDS011;65705;51.032;13.790;2023-02-19T11:14:13;2.15;;;0.60;;
76761;SDS011;65705;51.032;13.790;2023-02-19T11:16:46;2.67;;;1.10;;
76761;SDS011;65705;51.032;13.790;2023-02-19T11:19:23;1.10;;;0.60;;
76761;SDS011;65705;51.032;13.790;2023-02-19T11:21:52;1.60;;;0.70;;
76761;SDS011;65705;51.032;13.790;2023-02-19T11:24:40;1.38;;;0.50;;
76761;SDS011;65705;51.032;13.790;2023-02-19T11:27:05;0.93;;;0.40;;
76761;SDS011;65705;51.032;13.790;2023-02-19T11:29:41;1.40;;;0.40;;
76761;SDS011;65705;51.032;13.790;2023-02-19T11:32:21;2.80;;;0.70;;
76761;SDS011;65705;51.032;13.790;2023-02-19T11:34:49;0.95;;;0.55;;
76761;SDS011;65705;51.032;13.790;2023-02-19T11:37:16;1.58;;;0.57;;
76761;SDS011;65705;51.032;13.790;2023-02-19T11:39:46;0.95;;;0.55;;
76761;SDS011;65705;51.032;13.790;2023-02-19T11:42:32;10.23;;;4.28;;
76761;SDS011;65705;51.032;13.790;2023-02-19T11:45:57;3.00;;;0.60;;
76761;SDS011;65705;51.032;13.790;2023-02-19T11:48:51;2.63;;;0.50;;
76761;SDS011;65705;51.032;13.790;2023-02-19T11:53:52;1.92;;;0.65;;
76761;SDS011;65705;51.032;13.790;2023-02-19T11:56:35;2.13;;;0.50;;
76761;SDS011;65705;51.032;13.790;2023-02-19T11:59:25;1.77;;;0.50;;
76761;SDS011;65705;51.032;13.790;2023-02-19T12:10:33;1.88;;;0.43;;
76761;SDS011;65705;51.032;13.790;2023-02-19T12:21:05;3.63;;;0.52;;
76761;SDS011;65705;51.032;13.790;2023-02-19T12:26:27;4.43;;;0.75;;
76761;SDS011;65705;51.032;13.790;2023-02-19T12:29:09;2.97;;;0.40;;
76761;SDS011;65705;51.032;13.790;2023-02-19T12:34:28;4.28;;;0.70;;
76761;SDS011;65705;51.032;13.790;2023-02-19T12:37:12;6.75;;;0.90;;
76761;SDS011;65705;51.032;13.790;2023-02-19T12:45:32;2.60;;;0.52;;
76761;SDS011;65705;51.032;13.790;2023-02-19T12:48:04;1.67;;;0.40;;
76761;SDS011;65705;51.032;13.790;2023-02-19T12:50:36;3.53;;;0.60;;
76761;SDS011;65705;51.032;13.790;2023-02-19T12:53:07;5.15;;;0.75;;
76761;SDS011;65705;51.032;13.790;2023-02-19T12:55:56;3.15;;;0.60;;
76761;SDS011;65705;51.032;13.790;2023-02-19T12:58:47;5.75;;;0.90;;
76761;SDS011;65705;51.032;13.790;2023-02-19T13:01:18;1.52;;;0.60;;
76761;SDS011;65705;51.032;13.790;2023-02-19T13:03:53;4.22;;;0.55;;
76761;SDS011;65705;51.032;13.790;2023-02-19T13:06:38;4.35;;;0.77;;
76761;SDS011;65705;51.032;13.790;2023-02-19T13:09:12;3.03;;;0.90;;
76761;SDS011;65705;51.032;13.790;2023-02-19T13:11:49;5.63;;;1.20;;
76761;SDS011;65705;51.032;13.790;2023-02-19T13:16:51;6.10;;;1.00;;
76761;SDS011;65705;51.032;13.790;2023-02-19T13:19:24;1.70;;;0.50;;
76761;SDS011;65705;51.032;13.790;2023-02-19T13:21:51;2.60;;;0.40;;
76761;SDS011;65705;51.032;13.790;2023-02-19T13:24:46;4.97;;;0.55;;
76761;SDS011;65705;51.032;13.790;2023-02-19T13:38:01;2.13;;;0.38;;
76761;SDS011;65705;51.032;13.790;2023-02-19T13:40:32;4.85;;;0.70;;
76761;SDS011;65705;51.032;13.790;2023-02-19T13:43:07;4.13;;;0.55;;
76761;SDS011;65705;51.032;13.790;2023-02-19T13:45:57;2.03;;;0.50;;
76761;SDS011;65705;51.032;13.790;2023-02-19T13:48:27;9.40;;;1.45;;
76761;SDS011;65705;51.032;13.790;2023-02-19T13:53:55;2.80;;;0.47;;
76761;SDS011;65705;51.032;13.790;2023-02-19T14:04:39;2.10;;;0.30;;
76761;SDS011;65705;51.032;13.790;2023-02-19T14:25:28;2.15;;;0.47;;
76761;SDS011;65705;51.032;13.790;2023-02-19T14:30:29;1.92;;;0.35;;
76761;SDS011;65705;51.032;13.790;2023-02-19T14:32:56;4.32;;;1.08;;
76761;SDS011;65705;51.032;13.790;2023-02-19T14:35:26;2.22;;;0.68;;
76761;SDS011;65705;51.032;13.790;2023-02-19T14:37:59;1.92;;;0.52;;
76761;SDS011;65705;51.032;13.790;2023-02-19T14:40:27;6.38;;;1.00;;
76761;SDS011;65705;51.032;13.790;2023-02-19T14:42:59;3.38;;;0.50;;
76761;SDS011;65705;51.032;13.790;2023-02-19T14:45:26;3.17;;;0.57;;
76761;SDS011;65705;51.032;13.790;2023-02-19T14:47:56;0.95;;;0.30;;
76761;SDS011;65705;51.032;13.790;2023-02-19T14:50:27;5.82;;;0.80;;
76761;SDS011;65705;51.032;13.790;2023-02-19T14:52:56;3.67;;;0.57;;
76761;SDS011;65705;51.032;13.790;2023-02-19T14:55:26;4.32;;;0.60;;
76761;SDS011;65705;51.032;13.790;2023-02-19T14:57:57;2.10;;;0.60;;
76761;SDS011;65705;51.032;13.790;2023-02-19T15:00:43;6.53;;;0.65;;
76761;SDS011;65705;51.032;13.790;2023-02-19T15:03:25;5.32;;;0.60;;
76761;SDS011;65705;51.032;13.790;2023-02-19T15:05:55;2.85;;;0.70;;
76761;SDS011;65705;51.032;13.790;2023-02-19T15:08:26;1.70;;;0.45;;
76761;SDS011;65705;51.032;13.790;2023-02-19T15:10:57;2.15;;;0.68;;
76761;SDS011;65705;51.032;13.790;2023-02-19T15:13:24;3.42;;;0.60;;
76761;SDS011;65705;51.032;13.790;2023-02-19T15:15:52;3.40;;;0.70;;
76761;SDS011;65705;51.032;13.790;2023-02-19T15:18:23;2.50;;;0.55;;
76761;SDS011;65705;51.032;13.790;2023-02-19T15:20:50;4.10;;;0.60;;
76761;SDS011;65705;51.032;13.790;2023-02-19T15:23:23;2.28;;;0.70;;
76761;SDS011;65705;51.032;13.790;2023-02-19T15:25:51;2.78;;;0.52;;
76761;SDS011;65705;51.032;13.790;2023-02-19T15:30:46;6.68;;;1.02;;
76761;SDS011;65705;51.032;13.790;2023-02-19T15:33:16;4.07;;;0.82;;
76761;SDS011;65705;51.032;13.790;2023-02-19T15:35:48;7.32;;;0.65;;
76761;SDS011;65705;51.032;13.790;2023-02-19T15:38:16;3.30;;;0.57;;
76761;SDS011;65705;51.032;13.790;2023-02-19T15:40:45;2.42;;;0.57;;
76761;SDS011;65705;51.032;13.790;2023-02-19T15:46:00;4.68;;;0.77;;
76761;SDS011;65705;51.032;13.790;2023-02-19T15:48:39;3.70;;;0.95;;
76761;SDS011;65705;51.032;13.790;2023-02-19T15:51:14;3.15;;;0.90;;
76761;SDS011;65705;51.032;13.790;2023-02-19T15:53:47;3.63;;;0.85;;
76761;SDS011;65705;51.032;13.790;2023-02-19T15:56:27;5.00;;;0.85;;
76761;SDS011;65705;51.032;13.790;2023-02-19T16:01:32;2.75;;;0.93;;
76761;SDS011;65705;51.032;13.790;2023-02-19T16:04:00;4.85;;;0.90;;
76761;SDS011;65705;51.032;13.790;2023-02-19T16:06:27;4.95;;;0.80;;
76761;SDS011;65705;51.032;13.790;2023-02-19T16:16:44;4.25;;;0.98;;
76761;SDS011;65705;51.032;13.790;2023-02-19T16:19:18;3.20;;;0.95;;
76761;SDS011;65705;51.032;13.790;2023-02-19T16:21:45;5.75;;;0.70;;
76761;SDS011;65705;51.032;13.790;2023-02-19T16:24:12;2.95;;;0.80;;
76761;SDS011;65705;51.032;13.790;2023-02-19T16:26:59;1.85;;;0.60;;
76761;SDS011;65705;51.032;13.790;2023-02-19T16:29:27;3.40;;;0.70;;
76761;SDS011;65705;51.032;13.790;2023-02-19T16:31:56;2.15;;;0.60;;
76761;SDS011;65705;51.032;13.790;2023-02-19T16:34:31;4.30;;;0.80;;
76761;SDS011;65705;51.032;13.790;2023-02-19T16:42:32;3.00;;;1.10;;
76761;SDS011;65705;51.032;13.790;2023-02-19T16:44:58;4.55;;;0.90;;
76761;SDS011;65705;51.032;13.790;2023-02-19T16:47:31;4.10;;;1.45;;
76761;SDS011;65705;51.032;13.790;2023-02-19T16:49:59;2.83;;;0.85;;
76761;SDS011;65705;51.032;13.790;2023-02-19T16:52:27;5.13;;;0.95;;
76761;SDS011;65705;51.032;13.790;2023-02-19T16:54:53;5.68;;;0.70;;
76761;SDS011;65705;51.032;13.790;2023-02-19T16:57:19;4.70;;;1.08;;
76761;SDS011;65705;51.032;13.790;2023-02-19T16:59:45;3.53;;;1.00;;
76761;SDS011;65705;51.032;13.790;2023-02-19T17:02:15;4.13;;;0.80;;
76761;SDS011;65705;51.032;13.790;2023-02-19T17:04:45;3.53;;;0.88;;
76761;SDS011;65705;51.032;13.790;2023-02-19T17:07:13;5.07;;;1.20;;
76761;SDS011;65705;51.032;13.790;2023-02-19T17:09:40;7.32;;;2.13;;
76761;SDS011;65705;51.032;13.790;2023-02-19T17:12:13;4.05;;;1.17;;
76761;SDS011;65705;51.032;13.790;2023-02-19T17:14:41;5.53;;;1.15;;
76761;SDS011;65705;51.032;13.790;2023-02-19T17:17:06;6.07;;;2.15;;
76761;SDS011;65705;51.032;13.790;2023-02-19T17:19:32;8.68;;;1.30;;
76761;SDS011;65705;51.032;13.790;2023-02-19T17:21:58;2.88;;;0.75;;